Time;durP1;ratioP1;P1;durP2;ratioP2;P2;SDS_P1;SDS_P2;PMS_P1;PMS_P2;Temp;Humidity;BMP_temperature;BMP_pressure;BME280_temperature;BME280_humidity;BME280_pressure;Samples;Min_cycle;Max_cycle;Signal;HPM_P1;HPM_P2
2022/04/07 00:02:05;;;;;;;119.42;62.78;;;;;;;3.86;77.62;93610.16;1646629;85;21109;-48
2022/04/07 00:04:33;;;;;;;130.95;62.10;;;;;;;3.78;77.99;93619.12;1701806;83;21089;-47
2022/04/07 00:07:01;;;;;;;120.53;58.68;;;;;;;3.73;78.07;93624.31;1701967;83;20987;-48
2022/04/07 00:09:29;;;;;;;130.52;59.00;;;;;;;3.63;78.28;93616.62;1704644;83;21006;-47
2022/04/07 00:11:56;;;;;;;101.33;49.58;;;;;;;3.60;78.28;93620.20;1704934;83;21249;-50
2022/04/07 00:14:23;;;;;;;93.85;48.10;;;;;;;3.54;78.24;93600.16;1708129;83;21058;-47
2022/04/07 00:16:52;;;;;;;100.78;51.05;;;;;;;3.53;78.66;93617.66;1707509;83;21066;-49
2022/04/07 00:19:20;;;;;;;107.83;54.65;;;;;;;3.51;78.62;93592.86;1705332;83;21093;-47
2022/04/07 00:21:48;;;;;;;114.17;56.45;;;;;;;3.52;78.86;93591.66;1707462;83;20966;-48
2022/04/07 00:24:16;;;;;;;115.50;58.17;;;;;;;3.55;78.86;93588.70;1697661;83;21237;-47
2022/04/07 00:26:45;;;;;;;99.42;49.15;;;;;;;3.57;79.15;93587.08;1698212;83;21460;-48
2022/04/07 00:29:13;;;;;;;112.85;53.02;;;;;;;3.64;78.82;93581.44;1697712;83;21032;-47
2022/04/07 00:31:40;;;;;;;98.47;52.75;;;;;;;3.61;78.62;93585.02;1702908;83;21164;-47
2022/04/07 00:34:07;;;;;;;116.73;59.73;;;;;;;3.64;78.64;93573.28;1707299;83;21619;-48
2022/04/07 00:36:35;;;;;;;92.25;46.13;;;;;;;3.70;78.83;93570.19;1707384;83;21154;-48
2022/04/07 00:39:03;;;;;;;84.45;42.70;;;;;;;3.79;78.76;93564.11;1705580;83;21120;-47
2022/04/07 00:41:30;;;;;;;75.47;40.78;;;;;;;3.79;78.64;93562.75;1707390;83;20998;-47
2022/04/07 00:43:58;;;;;;;83.35;42.53;;;;;;;3.76;78.47;93560.32;1710303;83;21027;-48
2022/04/07 00:46:25;;;;;;;96.63;47.53;;;;;;;3.72;78.61;93557.52;1707590;83;20991;-47
2022/04/07 00:48:52;;;;;;;72.62;38.83;;;;;;;3.75;78.68;93567.53;1696054;83;21044;-47
2022/04/07 00:51:20;;;;;;;69.32;38.08;;;;;;;3.77;78.53;93559.13;1670105;84;21015;-47
2022/04/07 00:53:47;;;;;;;95.30;49.60;;;;;;;3.81;78.54;93552.20;1644007;84;21136;-47
2022/04/07 00:56:16;;;;;;;72.97;40.60;;;;;;;3.84;78.35;93552.11;1685804;85;20991;-48
2022/04/07 00:58:45;;;;;;;80.03;40.63;;;;;;;3.86;78.54;93544.89;1672875;85;20986;-47
2022/04/07 01:01:13;;;;;;;88.33;45.83;;;;;;;3.89;78.51;93544.77;1692519;83;21335;-48
2022/04/07 01:03:40;;;;;;;80.85;42.33;;;;;;;3.90;78.32;93536.77;1710316;83;21580;-48
2022/04/07 01:06:08;;;;;;;89.60;44.70;;;;;;;3.84;78.35;93536.40;1712741;83;20998;-47
2022/04/07 01:08:36;;;;;;;127.58;64.07;;;;;;;3.79;78.51;93526.03;1710133;83;39122;-47
2022/04/07 01:11:04;;;;;;;97.15;46.20;;;;;;;3.78;78.56;93522.57;1711347;83;20946;-48
2022/04/07 01:13:52;;;;;;;56.35;29.55;;;;;;;3.84;78.64;93516.75;1712056;83;21034;-48
2022/04/07 01:16:21;;;;;;;58.58;30.62;;;;;;;3.88;78.51;93522.84;1682573;83;21004;-47
2022/04/07 01:18:49;;;;;;;53.15;29.02;;;;;;;3.81;78.55;93520.34;1690847;83;21599;-48
2022/04/07 01:21:19;;;;;;;61.77;34.38;;;;;;;3.77;78.52;93523.77;1681188;83;21611;-47
2022/04/07 01:24:07;;;;;;;64.92;37.48;;;;;;;3.66;78.36;93529.36;1684248;83;21053;-48
2022/04/07 01:26:42;;;;;;;72.05;38.55;;;;;;;3.57;78.80;93520.47;1670541;83;22260;-48
2022/04/07 01:29:14;;;;;;;79.77;42.08;;;;;;;3.59;78.96;93512.64;1666599;84;21216;-48
2022/04/07 01:31:42;;;;;;;67.30;36.05;;;;;;;3.67;78.92;93522.72;1682131;83;21187;-47
2022/04/07 01:34:13;;;;;;;74.75;34.03;;;;;;;3.75;78.81;93513.92;1691462;83;21117;-47
2022/04/07 01:36:42;;;;;;;121.45;55.58;;;;;;;3.84;79.01;93512.67;1695697;83;21513;-49
2022/04/07 01:39:09;;;;;;;116.00;54.50;;;;;;;3.92;78.44;93519.44;1670184;83;21932;-48
2022/04/07 01:41:37;;;;;;;59.85;29.67;;;;;;;3.87;77.93;93523.29;1684274;83;20974;-48
2022/04/07 01:44:05;;;;;;;50.52;26.85;;;;;;;3.78;77.88;93510.91;1649244;83;22110;-48
2022/04/07 01:46:32;;;;;;;78.17;44.73;;;;;;;3.66;77.99;93513.78;1700853;83;21495;-48
2022/04/07 01:49:01;;;;;;;62.33;34.98;;;;;;;3.62;78.28;93513.72;1657087;85;21600;-47
2022/04/07 01:51:29;;;;;;;94.40;47.55;;;;;;;3.60;78.00;93514.17;1667940;85;21166;-47
2022/04/07 01:53:57;;;;;;;72.20;39.92;;;;;;;3.54;77.88;93515.13;1660785;85;20965;-48
2022/04/07 01:56:24;;;;;;;68.52;37.83;;;;;;;3.51;78.13;93509.95;1662987;85;20975;-48
2022/04/07 01:58:52;;;;;;;80.30;39.38;;;;;;;3.48;78.02;93502.66;1670371;85;21097;-47
2022/04/07 02:01:20;;;;;;;72.85;37.48;;;;;;;3.45;77.96;93504.73;1624439;84;21026;-48
2022/04/07 02:03:47;;;;;;;71.40;38.48;;;;;;;3.43;78.12;93501.68;1664655;84;21282;-49
2022/04/07 02:06:18;;;;;;;72.47;35.00;;;;;;;3.45;78.32;93501.39;1660431;84;21216;-47
2022/04/07 02:08:45;;;;;;;62.98;36.38;;;;;;;3.53;78.55;93501.38;1656379;85;21541;-49
2022/04/07 02:11:13;;;;;;;63.83;34.78;;;;;;;3.60;78.32;93498.44;1666992;84;20978;-47
2022/04/07 02:13:42;;;;;;;64.75;35.30;;;;;;;3.64;78.05;93494.42;1666949;83;21013;-49
2022/04/07 02:16:11;;;;;;;60.60;32.60;;;;;;;3.67;77.79;93494.17;1707744;83;21042;-53
2022/04/07 02:18:39;;;;;;;59.63;35.15;;;;;;;3.68;77.77;93493.72;1707659;83;20947;-47
2022/04/07 02:21:07;;;;;;;54.58;31.33;;;;;;;3.62;77.28;93494.10;1707519;83;21442;-48
2022/04/07 02:23:41;;;;;;;51.02;30.55;;;;;;;3.48;77.55;93483.63;1706850;83;20986;-48
2022/04/07 02:26:05;;;;;;;58.60;30.55;;;;;;;3.44;77.76;93484.17;1686877;83;21113;-49
2022/04/07 02:28:32;;;;;;;73.45;39.55;;;;;;;3.40;77.79;93480.19;1677050;84;21809;-51
2022/04/07 02:31:00;;;;;;;75.95;43.75;;;;;;;3.30;77.84;93466.91;1677568;83;20994;-48
2022/04/07 02:33:27;;;;;;;103.02;56.60;;;;;;;3.21;78.00;93468.16;1690381;83;21579;-48
2022/04/07 02:35:55;;;;;;;98.97;54.42;;;;;;;3.13;78.15;93473.60;1682186;83;21899;-47
2022/04/07 02:38:22;;;;;;;89.42;49.03;;;;;;;3.06;78.62;93469.13;1684408;83;21594;-47
2022/04/07 02:40:49;;;;;;;91.82;48.63;;;;;;;3.05;78.69;93468.21;1684095;84;21144;-47
2022/04/07 02:43:16;;;;;;;92.72;53.48;;;;;;;3.11;78.75;93462.41;1698588;84;20964;-48
2022/04/07 02:45:44;;;;;;;80.67;47.15;;;;;;;3.15;78.70;93460.34;1687799;84;21112;-49
2022/04/07 02:48:12;;;;;;;80.77;43.85;;;;;;;3.11;78.60;93456.97;1693630;84;20999;-48
2022/04/07 02:50:39;;;;;;;94.15;48.42;;;;;;;3.03;78.84;93461.09;1701029;83;21070;-48
2022/04/07 02:53:07;;;;;;;88.03;48.00;;;;;;;2.92;78.86;93456.53;1706195;83;21299;-47
2022/04/07 02:55:36;;;;;;;90.55;46.10;;;;;;;2.78;79.11;93463.12;1706188;83;21006;-48
2022/04/07 02:58:04;;;;;;;96.17;50.00;;;;;;;2.70;79.35;93450.16;1707204;83;21144;-47
2022/04/07 03:00:32;;;;;;;92.45;49.58;;;;;;;2.65;79.74;93447.37;1706461;83;21065;-48
2022/04/07 03:02:59;;;;;;;76.82;43.05;;;;;;;2.68;80.11;93454.65;1706993;83;21056;-47
2022/04/07 03:05:27;;;;;;;90.30;44.23;;;;;;;2.73;80.31;93445.23;1696436;83;21148;-48
2022/04/07 03:07:55;;;;;;;75.10;37.65;;;;;;;2.82;80.22;93444.00;1683971;83;20972;-49
2022/04/07 03:10:23;;;;;;;74.12;37.35;;;;;;;2.81;80.01;93446.55;1686759;83;21056;-48
2022/04/07 03:12:51;;;;;;;70.22;36.58;;;;;;;2.81;79.95;93447.33;1694709;83;21524;-49
2022/04/07 03:15:19;;;;;;;63.87;33.30;;;;;;;2.85;80.17;93443.91;1700891;83;21005;-48
2022/04/07 03:17:48;;;;;;;68.05;36.42;;;;;;;2.89;80.16;93447.89;1712207;83;20982;-48
2022/04/07 03:20:15;;;;;;;72.20;37.45;;;;;;;2.91;80.10;93442.19;1713601;83;21501;-48
2022/04/07 03:22:43;;;;;;;71.42;39.48;;;;;;;2.93;80.30;93432.27;1704619;83;21001;-50
2022/04/07 03:25:11;;;;;;;66.02;35.63;;;;;;;3.04;80.54;93430.02;1689210;83;21035;-50
2022/04/07 03:27:40;;;;;;;70.08;37.73;;;;;;;3.17;80.17;93424.00;1701452;83;21029;-49
2022/04/07 03:30:09;;;;;;;76.33;40.88;;;;;;;3.29;79.80;93411.81;1696244;83;21149;-50
2022/04/07 03:32:37;;;;;;;78.78;41.33;;;;;;;3.40;79.17;93415.58;1687181;83;21126;-52
2022/04/07 03:35:05;;;;;;;87.92;42.53;;;;;;;3.44;79.03;93408.81;1690122;83;21092;-49
2022/04/07 03:37:33;;;;;;;69.35;35.68;;;;;;;3.50;78.60;93409.20;1709488;83;21014;-47
2022/04/07 03:40:02;;;;;;;63.28;33.13;;;;;;;3.55;78.31;93410.02;1711868;83;21045;-46
2022/04/07 03:42:31;;;;;;;193.25;57.98;;;;;;;3.55;77.86;93407.91;1702669;83;21006;-47
2022/04/07 03:44:59;;;;;;;677.67;206.13;;;;;;;3.44;77.69;93413.51;1710009;83;20962;-47
2022/04/07 03:47:26;;;;;;;647.33;204.30;;;;;;;3.31;77.75;93406.70;1707744;83;20970;-47
2022/04/07 03:49:54;;;;;;;302.20;94.07;;;;;;;3.27;77.89;93406.64;1708846;83;21026;-48
2022/04/07 03:52:21;;;;;;;353.20;111.90;;;;;;;3.29;78.33;93401.53;1698109;83;21002;-47
2022/04/07 03:54:48;;;;;;;122.45;49.13;;;;;;;3.33;78.08;93402.18;1707039;83;21093;-49
2022/04/07 03:57:16;;;;;;;93.55;42.08;;;;;;;3.30;78.05;93396.26;1706316;83;21095;-47
2022/04/07 03:59:45;;;;;;;75.45;35.85;;;;;;;3.27;78.20;93399.23;1692727;83;21021;-48
2022/04/07 04:02:13;;;;;;;68.45;34.25;;;;;;;3.23;78.21;93391.05;1689473;83;21071;-48
2022/04/07 04:04:40;;;;;;;61.53;33.35;;;;;;;3.16;78.18;93394.73;1708927;83;21049;-48
2022/04/07 04:07:07;;;;;;;75.32;35.20;;;;;;;3.10;78.27;93391.62;1712017;83;21101;-47
2022/04/07 04:09:36;;;;;;;86.70;42.45;;;;;;;3.01;78.37;93384.10;1709466;83;20939;-48
2022/04/07 04:12:06;;;;;;;85.90;43.17;;;;;;;2.98;78.77;93373.33;1674072;83;21116;-48
2022/04/07 04:14:34;;;;;;;101.35;48.50;;;;;;;3.02;79.09;93380.19;1681750;83;20957;-48
2022/04/07 04:17:02;;;;;;;104.00;51.28;;;;;;;3.06;79.03;93365.16;1710296;83;21002;-48
2022/04/07 04:19:33;;;;;;;100.80;51.33;;;;;;;3.13;79.54;93363.58;1708041;83;21215;-47
2022/04/07 04:22:02;;;;;;;94.35;49.23;;;;;;;3.29;79.45;93359.41;1708066;83;21172;-49
2022/04/07 04:24:30;;;;;;;92.80;43.15;;;;;;;3.39;79.12;93366.50;1699707;83;21590;-48
2022/04/07 04:26:57;;;;;;;87.33;44.60;;;;;;;3.41;78.89;93365.45;1687059;83;21520;-49
2022/04/07 04:29:24;;;;;;;83.37;41.53;;;;;;;3.43;78.92;93366.53;1677317;83;21099;-52
2022/04/07 04:31:52;;;;;;;87.00;41.73;;;;;;;3.51;78.91;93369.95;1683108;83;21306;-48
2022/04/07 04:34:19;;;;;;;82.65;43.15;;;;;;;3.64;78.79;93371.30;1678800;83;20961;-48
2022/04/07 04:36:47;;;;;;;81.90;43.80;;;;;;;4.65;80.24;93366.55;1707925;83;21427;-50
2022/04/07 04:39:14;;;;;;;89.80;43.95;;;;;;;5.58;77.07;93361.48;1709204;82;21432;-51
2022/04/07 04:41:42;;;;;;;83.65;46.20;;;;;;;5.87;75.26;93354.33;1690595;83;21029;-50
2022/04/07 04:44:10;;;;;;;88.65;46.85;;;;;;;5.92;73.96;93361.92;1683346;83;21252;-49
2022/04/07 04:46:38;;;;;;;94.40;49.48;;;;;;;5.80;72.75;93358.72;1693933;83;21112;-48
2022/04/07 04:49:05;;;;;;;93.03;49.67;;;;;;;5.58;72.21;93359.38;1708146;83;20974;-49
2022/04/07 04:51:32;;;;;;;96.70;51.37;;;;;;;5.34;72.21;93359.70;1705715;83;21058;-49
2022/04/07 04:53:59;;;;;;;92.70;53.78;;;;;;;5.16;72.69;93367.78;1706208;83;21081;-48
2022/04/07 04:56:28;;;;;;;108.92;60.88;;;;;;;5.01;72.85;93359.96;1705922;83;22601;-47
2022/04/07 04:59:00;;;;;;;97.88;55.45;;;;;;;4.95;73.62;93350.11;1707548;82;20966;-48
2022/04/07 05:01:25;;;;;;;77.65;44.55;;;;;;;5.03;73.91;93346.68;1709956;83;20965;-47
2022/04/07 05:03:52;;;;;;;87.35;52.13;;;;;;;5.09;73.84;93341.39;1705047;83;21076;-47
2022/04/07 05:06:20;;;;;;;90.90;56.55;;;;;;;5.03;74.04;93335.78;1708716;83;21120;-47
2022/04/07 05:08:48;;;;;;;94.37;54.45;;;;;;;5.00;74.32;93331.20;1707041;83;21085;-48
2022/04/07 05:11:16;;;;;;;106.63;61.80;;;;;;;5.02;74.67;93331.53;1698643;83;21044;-50
2022/04/07 05:13:47;;;;;;;101.18;57.25;;;;;;;5.08;74.70;93328.97;1698005;83;21094;-53
2022/04/07 05:16:16;;;;;;;105.55;56.30;;;;;;;5.22;74.85;93342.07;1701493;83;21015;-48
2022/04/07 05:18:48;;;;;;;95.87;53.23;;;;;;;5.43;74.70;93342.03;1694699;83;21085;-49
2022/04/07 05:21:16;;;;;;;108.42;58.15;;;;;;;5.58;74.65;93331.48;1679154;83;21151;-49
2022/04/07 05:23:45;;;;;;;117.45;68.62;;;;;;;5.77;74.76;93314.58;1686574;83;21514;-47
2022/04/07 05:26:12;;;;;;;102.02;58.42;;;;;;;5.97;74.95;93307.51;1688004;83;21049;-49
2022/04/07 05:28:41;;;;;;;99.70;53.52;;;;;;;6.26;74.85;93293.44;1668799;85;21156;-49
2022/04/07 05:31:08;;;;;;;73.47;43.90;;;;;;;6.56;74.33;93285.08;1628390;86;21130;-47
2022/04/07 05:33:38;;;;;;;68.52;40.35;;;;;;;6.77;73.33;93287.50;1629967;86;21128;-50
2022/04/07 05:36:06;;;;;;;40.80;24.05;;;;;;;6.86;72.68;93290.23;1614904;86;21150;-50
2022/04/07 05:38:34;;;;;;;27.42;17.35;;;;;;;6.91;72.54;93288.23;1627684;87;21167;-49
2022/04/07 05:41:02;;;;;;;15.72;11.43;;;;;;;6.96;72.26;93284.29;1627354;86;21158;-48
2022/04/07 05:43:30;;;;;;;51.28;29.55;;;;;;;7.09;72.02;93278.78;1651316;85;21092;-49
2022/04/07 05:46:01;;;;;;;55.00;33.60;;;;;;;7.22;72.02;93276.63;1679229;83;21173;-49
2022/04/07 05:48:28;;;;;;;61.85;34.78;;;;;;;7.39;71.60;93268.80;1639926;86;21076;-49
2022/04/07 05:50:56;;;;;;;67.05;37.95;;;;;;;7.46;71.21;93273.33;1626269;86;21363;-54
2022/04/07 05:53:23;;;;;;;45.35;29.57;;;;;;;7.48;71.04;93264.05;1649503;86;21106;-49
2022/04/07 05:55:51;;;;;;;52.60;30.17;;;;;;;7.49;70.62;93262.83;1696247;83;20987;-49
2022/04/07 05:58:21;;;;;;;44.05;24.02;;;;;;;7.46;70.71;93252.81;1689335;83;21095;-51
2022/04/07 06:00:48;;;;;;;27.42;15.85;;;;;;;7.49;70.64;93251.88;1705301;82;21014;-51
2022/04/07 06:03:17;;;;;;;16.77;13.28;;;;;;;7.51;70.54;93246.70;1677542;82;21559;-50
2022/04/07 06:05:52;;;;;;;17.80;13.15;;;;;;;7.55;70.81;93247.28;1679137;82;21106;-50
2022/04/07 06:08:16;;;;;;;33.00;16.87;;;;;;;7.61;70.80;93234.50;1703906;82;21880;-53
2022/04/07 06:10:44;;;;;;;30.23;19.98;;;;;;;7.71;70.76;93225.00;1682126;82;21204;-54
2022/04/07 06:13:14;;;;;;;24.72;15.13;;;;;;;7.80;70.79;93214.61;1696178;83;21407;-49
2022/04/07 06:15:42;;;;;;;21.75;13.95;;;;;;;7.91;70.43;93211.48;1675471;82;21048;-51
2022/04/07 06:18:10;;;;;;;16.87;11.93;;;;;;;7.91;70.01;93203.89;1701229;82;21661;-51
2022/04/07 06:20:39;;;;;;;23.35;15.78;;;;;;;7.97;69.97;93211.00;1688581;82;21041;-52
2022/04/07 06:23:06;;;;;;;21.05;13.90;;;;;;;8.02;69.55;93217.80;1682735;82;21135;-51
2022/04/07 06:25:33;;;;;;;22.95;16.25;;;;;;;8.02;69.27;93216.42;1701740;83;21046;-51
2022/04/07 06:28:04;;;;;;;23.67;17.23;;;;;;;8.01;69.25;93215.69;1694047;82;21036;-52
2022/04/07 06:30:32;;;;;;;38.25;20.92;;;;;;;7.99;69.27;93208.55;1696920;82;21579;-54
2022/04/07 06:33:01;;;;;;;30.35;19.82;;;;;;;7.96;69.48;93201.28;1698306;82;21249;-53
2022/04/07 06:35:31;;;;;;;26.15;18.92;;;;;;;8.02;69.60;93201.36;1693070;82;21502;-50
2022/04/07 06:38:01;;;;;;;22.52;16.70;;;;;;;8.14;69.65;93200.38;1688811;83;21019;-52
2022/04/07 06:40:29;;;;;;;16.90;12.80;;;;;;;8.33;69.54;93204.50;1681520;82;21078;-50
2022/04/07 06:42:58;;;;;;;22.25;13.28;;;;;;;8.47;69.13;93205.89;1683264;82;21021;-53
2022/04/07 06:45:28;;;;;;;19.80;13.18;;;;;;;8.55;68.38;93200.20;1693078;82;21096;-52
2022/04/07 06:47:56;;;;;;;23.73;14.75;;;;;;;8.59;68.04;93207.61;1701555;82;21344;-51
2022/04/07 06:50:25;;;;;;;20.37;15.23;;;;;;;8.64;67.70;93206.95;1698205;82;21906;-51
2022/04/07 06:52:53;;;;;;;23.67;15.43;;;;;;;8.66;67.53;93209.97;1675846;82;21073;-53
2022/04/07 06:55:20;;;;;;;29.12;15.68;;;;;;;8.72;67.73;93209.47;1700032;83;21078;-54
2022/04/07 06:58:00;;;;;;;30.52;15.70;;;;;;;8.79;67.75;93204.23;1689164;82;21075;-52
2022/04/07 07:00:30;;;;;;;25.75;16.55;;;;;;;8.89;67.78;93194.80;1703413;83;21773;-53
2022/04/07 07:03:00;;;;;;;33.85;20.12;;;;;;;9.03;67.48;93194.68;1687616;83;21026;-53
2022/04/07 07:05:32;;;;;;;33.75;22.42;;;;;;;9.11;67.27;93191.67;1688004;83;21068;-52
2022/04/07 07:08:21;;;;;;;35.10;20.40;;;;;;;9.23;66.96;93189.26;1690495;82;21071;-54
2022/04/07 07:10:50;;;;;;;37.33;20.90;;;;;;;9.34;66.43;93184.69;1678749;82;20941;-53
2022/04/07 07:13:23;;;;;;;35.10;19.50;;;;;;;9.38;66.12;93181.73;1694588;82;21355;-54
2022/04/07 07:15:50;;;;;;;32.25;17.75;;;;;;;9.46;66.11;93176.00;1699435;82;21084;-51
2022/04/07 07:18:17;;;;;;;30.97;17.40;;;;;;;9.59;65.92;93182.67;1687603;83;21766;-54
2022/04/07 07:20:45;;;;;;;25.27;15.68;;;;;;;9.65;65.73;93176.62;1695483;82;21080;-51
2022/04/07 07:23:12;;;;;;;27.27;15.43;;;;;;;9.74;65.56;93176.52;1673635;82;21016;-52
2022/04/07 07:25:40;;;;;;;29.15;14.38;;;;;;;9.84;65.26;93167.53;1699768;82;21209;-52
2022/04/07 07:28:09;;;;;;;18.77;13.05;;;;;;;9.94;65.18;93167.52;1687490;83;21141;-54
2022/04/07 07:30:36;;;;;;;34.95;25.88;;;;;;;10.05;64.55;93166.32;1660042;84;21169;-52
2022/04/07 07:33:03;;;;;;;30.32;21.27;;;;;;;10.15;64.51;93168.44;1698666;82;21041;-54
2022/04/07 07:35:31;;;;;;;23.12;14.83;;;;;;;10.31;64.36;93163.02;1691154;83;21030;-53
2022/04/07 07:38:04;;;;;;;16.17;11.68;;;;;;;10.44;63.77;93156.52;1703871;82;21595;-51
2022/04/07 07:40:33;;;;;;;24.40;13.20;;;;;;;10.50;63.58;93160.09;1672673;83;21549;-54
2022/04/07 07:43:02;;;;;;;22.90;12.13;;;;;;;10.57;63.27;93153.52;1690842;83;21081;-54
2022/04/07 07:45:34;;;;;;;18.42;11.50;;;;;;;10.62;62.75;93152.08;1677862;83;21084;-55
2022/04/07 07:48:05;;;;;;;17.15;10.13;;;;;;;10.64;62.53;93146.84;1680731;82;21237;-53
2022/04/07 07:50:32;;;;;;;24.23;12.20;;;;;;;10.62;62.35;93141.08;1662473;82;21805;-53
2022/04/07 07:53:06;;;;;;;16.77;11.60;;;;;;;10.60;62.41;93142.95;1674036;83;21066;-53
2022/04/07 07:55:37;;;;;;;19.37;11.10;;;;;;;10.62;62.43;93136.95;1685971;82;21106;-53
2022/04/07 07:58:06;;;;;;;20.70;11.12;;;;;;;10.67;62.32;93142.50;1704226;82;21110;-51
2022/04/07 08:00:34;;;;;;;19.00;13.78;;;;;;;10.72;62.13;93133.55;1694052;83;21095;-52
2022/04/07 08:03:04;;;;;;;21.35;12.43;;;;;;;10.78;62.05;93137.12;1665555;83;21241;-51
2022/04/07 08:05:32;;;;;;;22.22;12.23;;;;;;;10.84;62.09;93136.53;1691195;82;21023;-53
2022/04/07 08:07:59;;;;;;;21.05;12.00;;;;;;;10.92;61.96;93136.98;1684294;83;21114;-51
2022/04/07 08:10:26;;;;;;;17.90;10.40;;;;;;;11.02;61.52;93129.30;1685038;82;21019;-51
2022/04/07 08:12:56;;;;;;;17.82;10.78;;;;;;;11.04;61.29;93128.97;1684721;83;20957;-51
2022/04/07 08:15:24;;;;;;;17.52;9.83;;;;;;;11.04;61.43;93127.59;1671351;83;21277;-53
2022/04/07 08:17:53;;;;;;;21.42;10.53;;;;;;;11.05;61.53;93122.22;1692654;83;21941;-53
2022/04/07 08:20:21;;;;;;;20.37;12.45;;;;;;;11.11;61.32;93123.61;1697878;83;21025;-55
2022/04/07 08:22:48;;;;;;;25.88;12.60;;;;;;;11.11;61.37;93125.75;1677465;83;21094;-52
2022/04/07 08:25:17;;;;;;;33.05;15.00;;;;;;;11.18;61.30;93121.80;1677262;83;21471;-54
2022/04/07 08:27:48;;;;;;;20.50;12.28;;;;;;;11.23;61.25;93112.82;1703427;83;21245;-52
2022/04/07 08:30:15;;;;;;;17.82;11.03;;;;;;;11.28;61.29;93108.73;1690895;82;21085;-52
2022/04/07 08:32:44;;;;;;;23.87;12.05;;;;;;;11.32;61.40;93109.89;1680606;83;21145;-50
2022/04/07 08:35:12;;;;;;;24.75;12.20;;;;;;;11.39;61.43;93104.66;1691447;82;21061;-53
2022/04/07 08:37:39;;;;;;;20.70;10.40;;;;;;;11.47;61.26;93100.22;1677733;83;21040;-54
2022/04/07 08:40:09;;;;;;;18.75;10.40;;;;;;;11.57;61.02;93098.78;1676587;83;21228;-52
2022/04/07 08:42:37;;;;;;;16.52;9.95;;;;;;;11.71;60.87;93098.50;1685137;82;21261;-53
2022/04/07 08:45:07;;;;;;;16.05;9.70;;;;;;;11.85;60.62;93081.77;1711859;82;21606;-51
2022/04/07 08:47:36;;;;;;;22.07;11.45;;;;;;;12.03;60.07;93080.57;1670849;83;21471;-54
2022/04/07 08:50:05;;;;;;;24.80;9.55;;;;;;;12.18;59.67;93072.86;1697871;82;21078;-55
2022/04/07 08:52:33;;;;;;;35.45;15.20;;;;;;;12.38;59.26;93065.75;1689832;82;22066;-53
2022/04/07 08:55:00;;;;;;;17.90;10.65;;;;;;;12.54;58.27;93067.17;1697094;82;21124;-52
2022/04/07 08:57:31;;;;;;;19.02;11.80;;;;;;;12.71;57.59;93073.46;1686789;82;21531;-51
2022/04/07 08:59:56;;;;;;;19.30;10.93;;;;;;;12.84;56.68;93064.80;1702086;82;21048;-51
2022/04/07 09:02:24;;;;;;;12.43;9.10;;;;;;;13.01;56.33;93053.78;1672651;83;22301;-52
2022/04/07 09:05:00;;;;;;;14.58;8.80;;;;;;;13.15;55.43;93050.01;1692304;82;21274;-53
2022/04/07 09:07:32;;;;;;;29.57;9.50;;;;;;;13.22;55.40;93047.48;1670283;83;21070;-56
2022/04/07 09:10:02;;;;;;;45.43;10.68;;;;;;;13.38;54.76;93041.80;1692673;83;21131;-55
2022/04/07 09:12:31;;;;;;;25.30;9.50;;;;;;;13.55;54.56;93040.52;1688206;83;21119;-51
2022/04/07 09:14:59;;;;;;;13.18;7.17;;;;;;;13.68;54.36;93033.06;1687458;82;21001;-51
2022/04/07 09:17:31;;;;;;;12.53;6.85;;;;;;;13.84;53.67;93029.48;1646205;83;21582;-54
2022/04/07 09:20:00;;;;;;;12.37;7.35;;;;;;;13.93;53.10;93023.65;1668764;83;21089;-53
2022/04/07 09:22:31;;;;;;;10.63;6.65;;;;;;;14.04;52.99;93012.55;1703806;82;21149;-52
2022/04/07 09:25:05;;;;;;;13.40;7.83;;;;;;;14.16;52.48;93009.88;1699158;82;21071;-51
2022/04/07 09:27:33;;;;;;;11.85;6.90;;;;;;;14.27;52.24;93002.88;1692150;82;21173;-54
2022/04/07 09:30:08;;;;;;;7.97;6.53;;;;;;;14.36;52.12;93001.20;1688136;82;22040;-53
2022/04/07 09:32:32;;;;;;;10.15;6.28;;;;;;;14.47;52.37;92998.46;1674521;83;21052;-50
2022/04/07 09:35:00;;;;;;;7.87;5.60;;;;;;;14.59;51.51;92999.16;1649639;83;21088;-53
2022/04/07 09:37:29;;;;;;;10.60;6.95;;;;;;;14.65;51.61;92997.83;1691227;82;21142;-52
2022/04/07 09:40:13;;;;;;;11.22;7.22;;;;;;;14.73;50.79;92990.48;1691866;82;21042;-53
2022/04/07 09:42:44;;;;;;;10.95;6.97;;;;;;;14.72;50.83;92986.83;1702567;82;22609;-52
2022/04/07 09:45:13;;;;;;;13.20;6.75;;;;;;;14.73;50.77;92978.02;1703832;82;21153;-52
2022/04/07 09:47:46;;;;;;;9.08;5.75;;;;;;;14.80;50.77;92968.41;1686780;83;21053;-53
2022/04/07 09:50:29;;;;;;;19.10;6.75;;;;;;;14.90;50.50;92963.41;1685678;82;21121;-53
2022/04/07 09:53:03;;;;;;;13.78;7.85;;;;;;;15.02;50.35;92956.47;1700737;82;21128;-51
2022/04/07 09:55:34;;;;;;;13.78;6.97;;;;;;;15.15;49.71;92953.83;1695121;82;21740;-54
2022/04/07 09:58:04;;;;;;;9.68;6.42;;;;;;;15.27;49.44;92944.14;1694155;82;20991;-55
2022/04/07 10:00:32;;;;;;;16.15;7.87;;;;;;;15.40;49.23;92937.98;1688989;82;22152;-54
2022/04/07 10:02:59;;;;;;;16.65;7.58;;;;;;;15.47;48.87;92933.98;1701165;82;21059;-53
2022/04/07 10:05:27;;;;;;;13.95;7.22;;;;;;;15.52;48.92;92935.20;1686724;82;21159;-51
2022/04/07 10:07:56;;;;;;;20.70;8.73;;;;;;;15.60;48.81;92928.55;1681007;83;21109;-53
2022/04/07 10:10:25;;;;;;;15.90;7.22;;;;;;;15.77;48.43;92927.67;1695305;83;21297;-51
2022/04/07 10:13:01;;;;;;;15.85;7.47;;;;;;;15.95;47.94;92917.22;1685493;82;21888;-52
2022/04/07 10:15:30;;;;;;;16.65;7.40;;;;;;;16.19;47.71;92907.44;1698685;83;20988;-52
2022/04/07 10:18:00;;;;;;;13.08;6.92;;;;;;;16.49;47.14;92909.38;1693583;83;21520;-50
2022/04/07 10:20:36;;;;;;;9.68;6.33;;;;;;;16.73;46.34;92902.31;1692686;82;21197;-51
2022/04/07 10:23:47;;;;;;;10.10;6.15;;;;;;;17.02;45.44;92895.72;1695866;83;21067;-53
2022/04/07 10:26:15;;;;;;;20.77;8.25;;;;;;;17.33;45.34;92886.55;1682156;83;21101;-53
2022/04/07 10:28:58;;;;;;;14.40;6.80;;;;;;;17.67;43.83;92881.84;1697691;82;21073;-51
2022/04/07 10:31:30;;;;;;;11.38;6.15;;;;;;;17.79;43.19;92874.11;1689017;83;21030;-52
2022/04/07 10:34:09;;;;;;;7.85;5.15;;;;;;;17.93;42.64;92872.80;1687879;82;21270;-51
2022/04/07 10:36:38;;;;;;;19.10;5.33;;;;;;;18.10;42.04;92863.44;1679386;82;21393;-52
2022/04/07 10:39:13;;;;;;;7.83;4.85;;;;;;;18.32;41.63;92862.95;1685429;83;21113;-53
2022/04/07 10:41:46;;;;;;;12.33;5.97;;;;;;;18.66;41.29;92849.72;1690552;82;21519;-53
2022/04/07 10:44:19;;;;;;;11.55;5.95;;;;;;;18.89;40.26;92850.00;1677471;82;21622;-53
2022/04/07 10:46:48;;;;;;;13.62;5.72;;;;;;;19.02;40.35;92834.56;1683213;82;21240;-51
2022/04/07 10:49:25;;;;;;;11.68;4.97;;;;;;;19.23;39.78;92826.91;1700391;82;21071;-52
2022/04/07 10:51:54;;;;;;;9.83;5.10;;;;;;;19.36;39.40;92828.20;1675400;83;21065;-52
2022/04/07 10:54:22;;;;;;;7.15;4.72;;;;;;;19.53;38.93;92819.38;1696216;83;21484;-54
2022/04/07 10:56:52;;;;;;;13.50;5.00;;;;;;;19.60;38.51;92808.23;1631226;85;21090;-53
2022/04/07 10:59:21;;;;;;;4.50;3.75;;;;;;;19.73;38.59;92810.90;1690790;82;21092;-53
2022/04/07 11:01:58;;;;;;;6.05;3.17;;;;;;;19.95;37.64;92792.08;1698315;83;21118;-51
2022/04/07 11:04:38;;;;;;;7.30;3.83;;;;;;;20.21;36.88;92789.75;1677246;83;21031;-53
2022/04/07 11:07:17;;;;;;;6.45;3.45;;;;;;;20.33;36.15;92790.13;1698595;82;21133;-52
2022/04/07 11:09:58;;;;;;;5.50;3.75;;;;;;;20.30;35.82;92789.86;1709775;82;21454;-52
2022/04/07 11:12:46;;;;;;;8.53;3.50;;;;;;;20.33;35.25;92790.13;1683547;82;21078;-52
2022/04/07 11:15:17;;;;;;;11.65;3.45;;;;;;;20.38;34.71;92784.38;1687637;83;20995;-53
2022/04/07 11:17:48;;;;;;;4.50;2.90;;;;;;;20.56;34.23;92781.14;1681085;83;21061;-55
2022/04/07 11:20:28;;;;;;;9.83;3.15;;;;;;;20.73;33.92;92777.14;1659985;84;21593;-53
2022/04/07 11:23:06;;;;;;;6.75;3.37;;;;;;;20.99;33.37;92768.37;1700452;82;21014;-51
2022/04/07 11:25:37;;;;;;;8.73;4.08;;;;;;;21.16;33.62;92765.09;1689948;83;21698;-54
2022/04/07 11:28:22;;;;;;;13.75;4.40;;;;;;;21.48;33.67;92771.42;1687913;82;21560;-51
2022/04/07 11:30:53;;;;;;;16.55;4.40;;;;;;;21.70;33.10;92763.62;1695736;83;21527;-54
2022/04/07 11:33:26;;;;;;;5.87;3.95;;;;;;;21.78;32.64;92755.92;1673640;83;21091;-50
2022/04/07 11:36:07;;;;;;;7.60;3.37;;;;;;;21.77;32.36;92757.23;1679302;82;21126;-53